sensor_id;sensor_type;location;lat;lon;timestamp;pressure;altitude;pressure_sealevel;temperature;humidity
75745;BME280;64359;51.366;-0.222;2023-04-25T00:00:24;101187.22;;;21.47;49.08
75745;BME280;64359;51.366;-0.222;2023-04-25T00:01:29;101190.70;;;21.48;49.08
75745;BME280;64359;51.366;-0.222;2023-04-25T00:02:35;101188.34;;;21.50;49.05
75745;BME280;64359;51.366;-0.222;2023-04-25T00:03:39;101185.66;;;21.51;49.05
75745;BME280;64359;51.366;-0.222;2023-04-25T00:04:44;101184.16;;;21.53;49.06
75745;BME280;64359;51.366;-0.222;2023-04-25T00:05:48;101185.15;;;21.54;49.03
75745;BME280;64359;51.366;-0.222;2023-04-25T00:06:54;101183.30;;;21.55;49.04
75745;BME280;64359;51.366;-0.222;2023-04-25T00:07:59;101179.70;;;21.57;49.00
75745;BME280;64359;51.366;-0.222;2023-04-25T00:09:03;101181.88;;;21.58;48.99
75745;BME280;64359;51.366;-0.222;2023-04-25T00:10:11;101173.80;;;21.59;48.98
75745;BME280;64359;51.366;-0.222;2023-04-25T00:11:15;101177.92;;;21.61;48.96
75745;BME280;64359;51.366;-0.222;2023-04-25T00:12:20;101174.55;;;21.62;48.94
75745;BME280;64359;51.366;-0.222;2023-04-25T00:13:26;101172.46;;;21.64;48.92
75745;BME280;64359;51.366;-0.222;2023-04-25T00:14:31;101174.49;;;21.66;48.93
75745;BME280;64359;51.366;-0.222;2023-04-25T00:15:37;101175.09;;;21.66;48.93
75745;BME280;64359;51.366;-0.222;2023-04-25T00:16:41;101174.73;;;21.68;48.73
75745;BME280;64359;51.366;-0.222;2023-04-25T00:17:47;101176.41;;;21.69;48.88
75745;BME280;64359;51.366;-0.222;2023-04-25T00:18:51;101178.02;;;21.71;48.91
75745;BME280;64359;51.366;-0.222;2023-04-25T00:19:56;101177.17;;;21.71;48.82
75745;BME280;64359;51.366;-0.222;2023-04-25T00:21:01;101179.90;;;21.73;48.80
75745;BME280;64359;51.366;-0.222;2023-04-25T00:22:05;101180.46;;;21.74;48.82
75745;BME280;64359;51.366;-0.222;2023-04-25T00:23:10;101185.40;;;21.75;48.84
75745;BME280;64359;51.366;-0.222;2023-04-25T00:24:14;101189.09;;;21.76;48.82
75745;BME280;64359;51.366;-0.222;2023-04-25T00:25:19;101184.83;;;21.77;48.78
75745;BME280;64359;51.366;-0.222;2023-04-25T00:26:23;101190.15;;;21.78;48.66
75745;BME280;64359;51.366;-0.222;2023-04-25T00:27:28;101194.41;;;21.79;48.74
75745;BME280;64359;51.366;-0.222;2023-04-25T00:28:32;101194.34;;;21.80;48.80
75745;BME280;64359;51.366;-0.222;2023-04-25T00:29:36;101194.73;;;21.81;48.69
75745;BME280;64359;51.366;-0.222;2023-04-25T00:30:41;101196.12;;;21.81;48.56
75745;BME280;64359;51.366;-0.222;2023-04-25T00:31:46;101197.64;;;21.82;48.58
75745;BME280;64359;51.366;-0.222;2023-04-25T00:32:50;101199.80;;;21.82;48.51
75745;BME280;64359;51.366;-0.222;2023-04-25T00:33:55;101203.45;;;21.83;48.54
75745;BME280;64359;51.366;-0.222;2023-04-25T00:34:59;101206.09;;;21.84;48.56
75745;BME280;64359;51.366;-0.222;2023-04-25T00:36:04;101210.39;;;21.84;48.54
75745;BME280;64359;51.366;-0.222;2023-04-25T00:37:08;101208.73;;;21.85;48.35
75745;BME280;64359;51.366;-0.222;2023-04-25T00:38:13;101209.95;;;21.85;48.37
75745;BME280;64359;51.366;-0.222;2023-04-25T00:39:17;101208.78;;;21.86;48.39
75745;BME280;64359;51.366;-0.222;2023-04-25T00:40:22;101209.25;;;21.86;48.39
75745;BME280;64359;51.366;-0.222;2023-04-25T00:41:27;101207.83;;;21.86;48.29
75745;BME280;64359;51.366;-0.222;2023-04-25T00:42:33;101206.88;;;21.86;48.31
75745;BME280;64359;51.366;-0.222;2023-04-25T00:43:38;101204.50;;;21.86;48.22
75745;BME280;64359;51.366;-0.222;2023-04-25T00:44:43;101202.83;;;21.87;48.19
75745;BME280;64359;51.366;-0.222;2023-04-25T00:45:49;101202.46;;;21.87;48.26
75745;BME280;64359;51.366;-0.222;2023-04-25T00:46:55;101207.48;;;21.87;48.24
75745;BME280;64359;51.366;-0.222;2023-04-25T00:47:59;101205.55;;;21.87;48.18
75745;BME280;64359;51.366;-0.222;2023-04-25T00:49:04;101208.77;;;21.87;48.17
75745;BME280;64359;51.366;-0.222;2023-04-25T00:50:09;101204.90;;;21.88;48.18
75745;BME280;64359;51.366;-0.222;2023-04-25T00:51:15;101207.10;;;21.87;48.12
75745;BME280;64359;51.366;-0.222;2023-04-25T00:52:20;101203.48;;;21.88;48.14
75745;BME280;64359;51.366;-0.222;2023-04-25T00:53:26;101202.92;;;21.87;48.20
75745;BME280;64359;51.366;-0.222;2023-04-25T00:54:31;101201.44;;;21.88;48.29
75745;BME280;64359;51.366;-0.222;2023-04-25T00:55:35;101199.84;;;21.88;48.25
75745;BME280;64359;51.366;-0.222;2023-04-25T00:56:40;101200.34;;;21.88;48.32
75745;BME280;64359;51.366;-0.222;2023-04-25T00:57:44;101201.44;;;21.88;48.29
75745;BME280;64359;51.366;-0.222;2023-04-25T00:58:51;101206.61;;;21.88;48.28
75745;BME280;64359;51.366;-0.222;2023-04-25T00:59:57;101207.46;;;21.89;48.38
75745;BME280;64359;51.366;-0.222;2023-04-25T01:01:02;101208.33;;;21.89;48.30
75745;BME280;64359;51.366;-0.222;2023-04-25T01:02:06;101211.15;;;21.90;48.24
75745;BME280;64359;51.366;-0.222;2023-04-25T01:03:12;101213.55;;;21.89;48.31
75745;BME280;64359;51.366;-0.222;2023-04-25T01:04:16;101215.95;;;21.90;48.22
75745;BME280;64359;51.366;-0.222;2023-04-25T01:05:20;101211.81;;;21.90;48.17
75745;BME280;64359;51.366;-0.222;2023-04-25T01:06:25;101213.62;;;21.90;48.16
75745;BME280;64359;51.366;-0.222;2023-04-25T01:07:30;101219.04;;;21.90;48.10
75745;BME280;64359;51.366;-0.222;2023-04-25T01:08:35;101220.13;;;21.90;48.01
75745;BME280;64359;51.366;-0.222;2023-04-25T01:09:40;101221.04;;;21.90;48.03
75745;BME280;64359;51.366;-0.222;2023-04-25T01:10:44;101219.11;;;21.90;47.98
75745;BME280;64359;51.366;-0.222;2023-04-25T01:11:49;101221.42;;;21.90;47.99
75745;BME280;64359;51.366;-0.222;2023-04-25T01:12:54;101220.91;;;21.90;48.07
75745;BME280;64359;51.366;-0.222;2023-04-25T01:13:58;101216.23;;;21.89;48.03
75745;BME280;64359;51.366;-0.222;2023-04-25T01:15:04;101217.52;;;21.89;48.05
75745;BME280;64359;51.366;-0.222;2023-04-25T01:16:08;101215.05;;;21.89;47.94
75745;BME280;64359;51.366;-0.222;2023-04-25T01:17:13;101217.05;;;21.89;48.01
75745;BME280;64359;51.366;-0.222;2023-04-25T01:18:19;101212.45;;;21.88;48.13
75745;BME280;64359;51.366;-0.222;2023-04-25T01:19:24;101213.00;;;21.88;48.05
75745;BME280;64359;51.366;-0.222;2023-04-25T01:20:30;101214.70;;;21.87;48.07
75745;BME280;64359;51.366;-0.222;2023-04-25T01:21:35;101216.53;;;21.87;48.04
75745;BME280;64359;51.366;-0.222;2023-04-25T01:22:40;101214.94;;;21.87;48.03
75745;BME280;64359;51.366;-0.222;2023-04-25T01:23:44;101217.52;;;21.86;47.99
75745;BME280;64359;51.366;-0.222;2023-04-25T01:24:49;101218.47;;;21.86;48.06
75745;BME280;64359;51.366;-0.222;2023-04-25T01:25:54;101221.09;;;21.85;47.93
75745;BME280;64359;51.366;-0.222;2023-04-25T01:26:59;101215.81;;;21.84;47.96
75745;BME280;64359;51.366;-0.222;2023-04-25T01:28:05;101220.52;;;21.84;47.96
75745;BME280;64359;51.366;-0.222;2023-04-25T01:29:10;101216.60;;;21.84;47.90
75745;BME280;64359;51.366;-0.222;2023-04-25T01:30:15;101215.23;;;21.83;47.92
75745;BME280;64359;51.366;-0.222;2023-04-25T01:31:19;101217.67;;;21.82;47.81
75745;BME280;64359;51.366;-0.222;2023-04-25T01:32:24;101217.37;;;21.82;47.88
75745;BME280;64359;51.366;-0.222;2023-04-25T01:33:30;101217.61;;;21.82;47.85
75745;BME280;64359;51.366;-0.222;2023-04-25T01:34:34;101217.85;;;21.81;47.88
75745;BME280;64359;51.366;-0.222;2023-04-25T01:35:38;101218.50;;;21.80;47.86
75745;BME280;64359;51.366;-0.222;2023-04-25T01:36:43;101220.04;;;21.79;47.80
75745;BME280;64359;51.366;-0.222;2023-04-25T01:37:47;101221.91;;;21.79;47.92
75745;BME280;64359;51.366;-0.222;2023-04-25T01:38:52;101219.11;;;21.78;47.86
75745;BME280;64359;51.366;-0.222;2023-04-25T01:39:56;101222.04;;;21.77;47.85
75745;BME280;64359;51.366;-0.222;2023-04-25T01:41:01;101222.33;;;21.77;47.83
75745;BME280;64359;51.366;-0.222;2023-04-25T01:42:05;101222.29;;;21.75;47.77
75745;BME280;64359;51.366;-0.222;2023-04-25T01:43:10;101224.48;;;21.75;47.83
75745;BME280;64359;51.366;-0.222;2023-04-25T01:44:15;101222.60;;;21.74;47.87
75745;BME280;64359;51.366;-0.222;2023-04-25T01:45:19;101224.14;;;21.73;47.81
75745;BME280;64359;51.366;-0.222;2023-04-25T01:46:24;101221.70;;;21.72;47.78
75745;BME280;64359;51.366;-0.222;2023-04-25T01:47:28;101223.23;;;21.72;47.86
75745;BME280;64359;51.366;-0.222;2023-04-25T01:48:33;101222.05;;;21.71;47.82
75745;BME280;64359;51.366;-0.222;2023-04-25T01:49:37;101222.16;;;21.70;47.83
75745;BME280;64359;51.366;-0.222;2023-04-25T01:50:42;101224.79;;;21.70;47.83
75745;BME280;64359;51.366;-0.222;2023-04-25T01:51:46;101227.77;;;21.69;47.91
75745;BME280;64359;51.366;-0.222;2023-04-25T01:52:51;101228.55;;;21.68;47.80
75745;BME280;64359;51.366;-0.222;2023-04-25T01:53:56;101231.51;;;21.67;47.75
75745;BME280;64359;51.366;-0.222;2023-04-25T01:55:02;101233.45;;;21.67;47.80
75745;BME280;64359;51.366;-0.222;2023-04-25T01:56:07;101235.73;;;21.66;47.94
75745;BME280;64359;51.366;-0.222;2023-04-25T01:57:11;101236.55;;;21.65;47.88
75745;BME280;64359;51.366;-0.222;2023-04-25T01:58:16;101239.89;;;21.64;47.83
75745;BME280;64359;51.366;-0.222;2023-04-25T01:59:20;101236.98;;;21.63;47.78
75745;BME280;64359;51.366;-0.222;2023-04-25T02:00:25;101240.64;;;21.63;47.75
75745;BME280;64359;51.366;-0.222;2023-04-25T02:01:29;101242.20;;;21.61;47.81
75745;BME280;64359;51.366;-0.222;2023-04-25T02:02:33;101240.52;;;21.60;47.85
75745;BME280;64359;51.366;-0.222;2023-04-25T02:03:38;101242.94;;;21.60;47.78
75745;BME280;64359;51.366;-0.222;2023-04-25T02:04:42;101245.02;;;21.59;47.72
75745;BME280;64359;51.366;-0.222;2023-04-25T02:05:47;101246.79;;;21.58;47.83
75745;BME280;64359;51.366;-0.222;2023-04-25T02:06:51;101246.31;;;21.57;47.79
75745;BME280;64359;51.366;-0.222;2023-04-25T02:07:55;101245.71;;;21.57;47.85
75745;BME280;64359;51.366;-0.222;2023-04-25T02:08:59;101248.49;;;21.56;47.83
75745;BME280;64359;51.366;-0.222;2023-04-25T02:10:05;101251.45;;;21.55;47.79
75745;BME280;64359;51.366;-0.222;2023-04-25T02:11:09;101252.89;;;21.54;47.82
75745;BME280;64359;51.366;-0.222;2023-04-25T02:12:13;101252.23;;;21.53;47.80
75745;BME280;64359;51.366;-0.222;2023-04-25T02:13:18;101254.16;;;21.52;47.79
75745;BME280;64359;51.366;-0.222;2023-04-25T02:14:22;101253.42;;;21.51;47.86
75745;BME280;64359;51.366;-0.222;2023-04-25T02:15:26;101252.29;;;21.50;47.76
75745;BME280;64359;51.366;-0.222;2023-04-25T02:16:31;101253.07;;;21.49;47.82
75745;BME280;64359;51.366;-0.222;2023-04-25T02:17:35;101253.62;;;21.48;47.89
75745;BME280;64359;51.366;-0.222;2023-04-25T02:18:39;101245.94;;;21.47;47.93
75745;BME280;64359;51.366;-0.222;2023-04-25T02:19:44;101247.88;;;21.46;47.87
75745;BME280;64359;51.366;-0.222;2023-04-25T02:20:48;101249.91;;;21.45;47.93
75745;BME280;64359;51.366;-0.222;2023-04-25T02:21:53;101248.98;;;21.44;47.93
75745;BME280;64359;51.366;-0.222;2023-04-25T02:22:57;101246.38;;;21.43;47.92
75745;BME280;64359;51.366;-0.222;2023-04-25T02:24:02;101248.77;;;21.42;47.95
75745;BME280;64359;51.366;-0.222;2023-04-25T02:25:08;101247.64;;;21.41;47.91
75745;BME280;64359;51.366;-0.222;2023-04-25T02:26:12;101248.77;;;21.41;47.97
75745;BME280;64359;51.366;-0.222;2023-04-25T02:27:17;101246.33;;;21.40;47.94
75745;BME280;64359;51.366;-0.222;2023-04-25T02:28:21;101247.90;;;21.39;47.87
75745;BME280;64359;51.366;-0.222;2023-04-25T02:29:26;101249.63;;;21.38;47.98
75745;BME280;64359;51.366;-0.222;2023-04-25T02:30:30;101249.54;;;21.38;48.00
75745;BME280;64359;51.366;-0.222;2023-04-25T02:31:34;101249.98;;;21.37;48.01
75745;BME280;64359;51.366;-0.222;2023-04-25T02:32:39;101249.85;;;21.37;47.97
75745;BME280;64359;51.366;-0.222;2023-04-25T02:33:44;101253.04;;;21.36;47.95
75745;BME280;64359;51.366;-0.222;2023-04-25T02:34:48;101253.69;;;21.35;48.02
75745;BME280;64359;51.366;-0.222;2023-04-25T02:35:53;101252.14;;;21.34;47.99
75745;BME280;64359;51.366;-0.222;2023-04-25T02:36:57;101255.13;;;21.33;47.94
75745;BME280;64359;51.366;-0.222;2023-04-25T02:38:01;101253.41;;;21.33;47.97
75745;BME280;64359;51.366;-0.222;2023-04-25T02:39:06;101259.54;;;21.33;48.02
75745;BME280;64359;51.366;-0.222;2023-04-25T02:40:11;101257.34;;;21.31;47.97
75745;BME280;64359;51.366;-0.222;2023-04-25T02:41:16;101258.52;;;21.30;47.97
75745;BME280;64359;51.366;-0.222;2023-04-25T02:42:20;101257.66;;;21.30;47.99
75745;BME280;64359;51.366;-0.222;2023-04-25T02:43:25;101257.41;;;21.29;48.02
75745;BME280;64359;51.366;-0.222;2023-04-25T02:44:29;101257.48;;;21.29;48.02
75745;BME280;64359;51.366;-0.222;2023-04-25T02:45:33;101256.66;;;21.28;47.98
75745;BME280;64359;51.366;-0.222;2023-04-25T02:46:38;101259.11;;;21.27;48.00
75745;BME280;64359;51.366;-0.222;2023-04-25T02:47:42;101260.80;;;21.26;48.04
75745;BME280;64359;51.366;-0.222;2023-04-25T02:48:46;101262.70;;;21.25;48.04
75745;BME280;64359;51.366;-0.222;2023-04-25T02:49:51;101261.53;;;21.25;48.10
75745;BME280;64359;51.366;-0.222;2023-04-25T02:50:55;101265.94;;;21.24;48.00
75745;BME280;64359;51.366;-0.222;2023-04-25T02:51:59;101262.73;;;21.24;48.07
75745;BME280;64359;51.366;-0.222;2023-04-25T02:53:04;101265.16;;;21.23;48.11
75745;BME280;64359;51.366;-0.222;2023-04-25T02:54:08;101264.66;;;21.23;48.11
75745;BME280;64359;51.366;-0.222;2023-04-25T02:55:13;101261.39;;;21.21;48.11
75745;BME280;64359;51.366;-0.222;2023-04-25T02:56:18;101263.42;;;21.21;48.21
75745;BME280;64359;51.366;-0.222;2023-04-25T02:57:22;101262.11;;;21.20;48.12
75745;BME280;64359;51.366;-0.222;2023-04-25T02:58:27;101261.50;;;21.19;48.09
75745;BME280;64359;51.366;-0.222;2023-04-25T02:59:31;101266.29;;;21.18;48.07
75745;BME280;64359;51.366;-0.222;2023-04-25T03:00:36;101266.20;;;21.17;48.12
75745;BME280;64359;51.366;-0.222;2023-04-25T03:01:40;101268.23;;;21.17;48.11
75745;BME280;64359;51.366;-0.222;2023-04-25T03:02:44;101271.21;;;21.16;48.08
75745;BME280;64359;51.366;-0.222;2023-04-25T03:03:49;101270.20;;;21.15;48.15
75745;BME280;64359;51.366;-0.222;2023-04-25T03:04:53;101270.85;;;21.14;48.08
75745;BME280;64359;51.366;-0.222;2023-04-25T03:05:57;101269.46;;;21.14;48.09
75745;BME280;64359;51.366;-0.222;2023-04-25T03:07:02;101268.81;;;21.13;48.15
75745;BME280;64359;51.366;-0.222;2023-04-25T03:08:06;101266.36;;;21.12;48.12
75745;BME280;64359;51.366;-0.222;2023-04-25T03:09:11;101264.67;;;21.11;48.17
75745;BME280;64359;51.366;-0.222;2023-04-25T03:10:15;101262.70;;;21.11;48.08
75745;BME280;64359;51.366;-0.222;2023-04-25T03:11:19;101259.77;;;21.10;48.07
75745;BME280;64359;51.366;-0.222;2023-04-25T03:12:24;101257.70;;;21.09;48.11
75745;BME280;64359;51.366;-0.222;2023-04-25T03:13:28;101261.20;;;21.09;48.07
75745;BME280;64359;51.366;-0.222;2023-04-25T03:14:33;101260.73;;;21.08;48.10
75745;BME280;64359;51.366;-0.222;2023-04-25T03:15:38;101263.75;;;21.07;48.11
75745;BME280;64359;51.366;-0.222;2023-04-25T03:16:48;101260.23;;;21.06;48.16
75745;BME280;64359;51.366;-0.222;2023-04-25T03:17:52;101261.38;;;21.06;48.21
75745;BME280;64359;51.366;-0.222;2023-04-25T03:18:57;101262.13;;;21.05;48.18
75745;BME280;64359;51.366;-0.222;2023-04-25T03:20:01;101263.60;;;21.05;48.13
75745;BME280;64359;51.366;-0.222;2023-04-25T03:21:08;101264.05;;;21.04;48.24
75745;BME280;64359;51.366;-0.222;2023-04-25T03:22:12;101267.80;;;21.05;48.21
75745;BME280;64359;51.366;-0.222;2023-04-25T03:23:17;101265.23;;;21.05;48.20
75745;BME280;64359;51.366;-0.222;2023-04-25T03:24:21;101268.21;;;21.06;48.22
75745;BME280;64359;51.366;-0.222;2023-04-25T03:25:26;101271.91;;;21.07;48.26
75745;BME280;64359;51.366;-0.222;2023-04-25T03:26:30;101270.59;;;21.07;48.28
75745;BME280;64359;51.366;-0.222;2023-04-25T03:27:34;101273.52;;;21.09;48.33
75745;BME280;64359;51.366;-0.222;2023-04-25T03:28:39;101270.01;;;21.09;48.40
75745;BME280;64359;51.366;-0.222;2023-04-25T03:29:43;101273.78;;;21.11;48.39
75745;BME280;64359;51.366;-0.222;2023-04-25T03:30:48;101268.27;;;21.12;48.39
75745;BME280;64359;51.366;-0.222;2023-04-25T03:31:52;101272.77;;;21.13;48.44
75745;BME280;64359;51.366;-0.222;2023-04-25T03:32:57;101272.80;;;21.14;48.40
75745;BME280;64359;51.366;-0.222;2023-04-25T03:34:01;101274.84;;;21.16;48.58
75745;BME280;64359;51.366;-0.222;2023-04-25T03:35:06;101272.86;;;21.17;48.49
75745;BME280;64359;51.366;-0.222;2023-04-25T03:36:11;101278.67;;;21.19;48.41
75745;BME280;64359;51.366;-0.222;2023-04-25T03:37:15;101277.68;;;21.21;48.40
75745;BME280;64359;51.366;-0.222;2023-04-25T03:38:20;101280.04;;;21.22;48.37
75745;BME280;64359;51.366;-0.222;2023-04-25T03:39:24;101281.69;;;21.24;48.33
75745;BME280;64359;51.366;-0.222;2023-04-25T03:40:28;101282.77;;;21.26;48.31
75745;BME280;64359;51.366;-0.222;2023-04-25T03:41:33;101282.25;;;21.27;48.30
75745;BME280;64359;51.366;-0.222;2023-04-25T03:42:37;101283.11;;;21.28;48.24
75745;BME280;64359;51.366;-0.222;2023-04-25T03:43:41;101285.13;;;21.30;48.19
75745;BME280;64359;51.366;-0.222;2023-04-25T03:44:46;101289.25;;;21.32;48.12
75745;BME280;64359;51.366;-0.222;2023-04-25T03:45:50;101286.02;;;21.33;48.11
75745;BME280;64359;51.366;-0.222;2023-04-25T03:46:55;101287.13;;;21.34;48.11
75745;BME280;64359;51.366;-0.222;2023-04-25T03:47:59;101287.36;;;21.35;48.15
75745;BME280;64359;51.366;-0.222;2023-04-25T03:49:03;101288.60;;;21.37;48.15
75745;BME280;64359;51.366;-0.222;2023-04-25T03:50:09;101288.13;;;21.38;48.18
75745;BME280;64359;51.366;-0.222;2023-04-25T03:51:13;101288.02;;;21.39;48.24
75745;BME280;64359;51.366;-0.222;2023-04-25T03:52:19;101291.84;;;21.40;48.25
75745;BME280;64359;51.366;-0.222;2023-04-25T03:53:23;101288.63;;;21.41;48.22
75745;BME280;64359;51.366;-0.222;2023-04-25T03:54:28;101289.38;;;21.43;48.26
75745;BME280;64359;51.366;-0.222;2023-04-25T03:55:32;101289.77;;;21.44;48.23
75745;BME280;64359;51.366;-0.222;2023-04-25T03:56:36;101292.77;;;21.45;48.17
75745;BME280;64359;51.366;-0.222;2023-04-25T03:57:41;101293.04;;;21.45;48.23
75745;BME280;64359;51.366;-0.222;2023-04-25T03:58:45;101292.05;;;21.46;48.11
75745;BME280;64359;51.366;-0.222;2023-04-25T03:59:49;101296.24;;;21.48;48.11
75745;BME280;64359;51.366;-0.222;2023-04-25T04:00:54;101296.38;;;21.48;48.05
75745;BME280;64359;51.366;-0.222;2023-04-25T04:01:58;101296.48;;;21.49;48.11
75745;BME280;64359;51.366;-0.222;2023-04-25T04:03:02;101299.11;;;21.50;48.13
75745;BME280;64359;51.366;-0.222;2023-04-25T04:04:07;101298.66;;;21.50;48.06
75745;BME280;64359;51.366;-0.222;2023-04-25T04:05:12;101298.80;;;21.51;48.04
75745;BME280;64359;51.366;-0.222;2023-04-25T04:06:16;101296.77;;;21.51;48.04
75745;BME280;64359;51.366;-0.222;2023-04-25T04:07:21;101300.83;;;21.52;47.98
75745;BME280;64359;51.366;-0.222;2023-04-25T04:08:26;101299.65;;;21.51;47.91
75745;BME280;64359;51.366;-0.222;2023-04-25T04:09:30;101301.03;;;21.52;47.84
75745;BME280;64359;51.366;-0.222;2023-04-25T04:10:35;101306.69;;;21.53;47.74
75745;BME280;64359;51.366;-0.222;2023-04-25T04:11:39;101303.98;;;21.53;47.73
75745;BME280;64359;51.366;-0.222;2023-04-25T04:12:43;101302.94;;;21.53;47.65
75745;BME280;64359;51.366;-0.222;2023-04-25T04:13:48;101304.36;;;21.53;47.66
75745;BME280;64359;51.366;-0.222;2023-04-25T04:14:52;101305.38;;;21.53;47.64
75745;BME280;64359;51.366;-0.222;2023-04-25T04:15:56;101308.08;;;21.53;47.59
75745;BME280;64359;51.366;-0.222;2023-04-25T04:17:01;101307.58;;;21.53;47.62
75745;BME280;64359;51.366;-0.222;2023-04-25T04:18:05;101307.89;;;21.54;47.59
75745;BME280;64359;51.366;-0.222;2023-04-25T04:19:10;101309.70;;;21.53;47.58
75745;BME280;64359;51.366;-0.222;2023-04-25T04:20:14;101308.27;;;21.53;47.69
75745;BME280;64359;51.366;-0.222;2023-04-25T04:21:19;101311.14;;;21.54;47.72
75745;BME280;64359;51.366;-0.222;2023-04-25T04:22:23;101312.05;;;21.53;47.70
75745;BME280;64359;51.366;-0.222;2023-04-25T04:23:27;101313.67;;;21.53;47.70
75745;BME280;64359;51.366;-0.222;2023-04-25T04:24:32;101316.48;;;21.54;47.77
75745;BME280;64359;51.366;-0.222;2023-04-25T04:25:37;101324.14;;;21.54;47.79
75745;BME280;64359;51.366;-0.222;2023-04-25T04:26:42;101323.70;;;21.54;47.80
75745;BME280;64359;51.366;-0.222;2023-04-25T04:27:47;101326.18;;;21.55;47.81
75745;BME280;64359;51.366;-0.222;2023-04-25T04:28:54;101326.86;;;21.55;47.78
75745;BME280;64359;51.366;-0.222;2023-04-25T04:29:59;101323.34;;;21.54;47.76
75745;BME280;64359;51.366;-0.222;2023-04-25T04:31:03;101325.27;;;21.55;47.78
75745;BME280;64359;51.366;-0.222;2023-04-25T04:32:07;101327.95;;;21.55;47.76
75745;BME280;64359;51.366;-0.222;2023-04-25T04:33:12;101333.70;;;21.55;47.78
75745;BME280;64359;51.366;-0.222;2023-04-25T04:34:18;101338.79;;;21.55;47.67
75745;BME280;64359;51.366;-0.222;2023-04-25T04:35:22;101340.04;;;21.55;47.73
75745;BME280;64359;51.366;-0.222;2023-04-25T04:36:27;101346.13;;;21.56;47.65
75745;BME280;64359;51.366;-0.222;2023-04-25T04:37:32;101348.44;;;21.56;47.63
75745;BME280;64359;51.366;-0.222;2023-04-25T04:38:36;101349.55;;;21.56;47.65
75745;BME280;64359;51.366;-0.222;2023-04-25T04:39:41;101353.15;;;21.56;47.67
75745;BME280;64359;51.366;-0.222;2023-04-25T04:40:45;101347.56;;;21.56;47.62
75745;BME280;64359;51.366;-0.222;2023-04-25T04:41:50;101347.42;;;21.55;47.51
75745;BME280;64359;51.366;-0.222;2023-04-25T04:42:55;101348.64;;;21.56;47.56
75745;BME280;64359;51.366;-0.222;2023-04-25T04:44:00;101352.10;;;21.56;47.61
75745;BME280;64359;51.366;-0.222;2023-04-25T04:45:07;101356.91;;;21.56;47.61
75745;BME280;64359;51.366;-0.222;2023-04-25T04:46:11;101365.08;;;21.56;47.65
75745;BME280;64359;51.366;-0.222;2023-04-25T04:47:16;101373.21;;;21.56;47.64
75745;BME280;64359;51.366;-0.222;2023-04-25T04:48:20;101368.54;;;21.56;47.66
75745;BME280;64359;51.366;-0.222;2023-04-25T04:49:24;101369.62;;;21.56;47.57
75745;BME280;64359;51.366;-0.222;2023-04-25T04:50:29;101368.60;;;21.55;47.57
75745;BME280;64359;51.366;-0.222;2023-04-25T04:51:35;101363.19;;;21.55;47.57
75745;BME280;64359;51.366;-0.222;2023-04-25T04:52:40;101357.05;;;21.55;47.61
75745;BME280;64359;51.366;-0.222;2023-04-25T04:53:44;101356.64;;;21.55;47.52
75745;BME280;64359;51.366;-0.222;2023-04-25T04:54:48;101354.04;;;21.54;47.67
75745;BME280;64359;51.366;-0.222;2023-04-25T04:55:53;101357.80;;;21.55;47.57
75745;BME280;64359;51.366;-0.222;2023-04-25T04:56:57;101356.20;;;21.54;47.54
75745;BME280;64359;51.366;-0.222;2023-04-25T04:58:01;101359.54;;;21.54;47.58
75745;BME280;64359;51.366;-0.222;2023-04-25T04:59:06;101364.20;;;21.54;47.56
75745;BME280;64359;51.366;-0.222;2023-04-25T05:00:12;101368.08;;;21.54;47.51
75745;BME280;64359;51.366;-0.222;2023-04-25T05:01:16;101367.92;;;21.53;47.59
75745;BME280;64359;51.366;-0.222;2023-04-25T05:02:21;101370.64;;;21.53;47.61
75745;BME280;64359;51.366;-0.222;2023-04-25T05:03:25;101372.27;;;21.53;47.67
75745;BME280;64359;51.366;-0.222;2023-04-25T05:04:30;101379.62;;;21.54;47.70
75745;BME280;64359;51.366;-0.222;2023-04-25T05:05:34;101379.45;;;21.54;47.75
75745;BME280;64359;51.366;-0.222;2023-04-25T05:06:42;101381.41;;;21.54;47.74
75745;BME280;64359;51.366;-0.222;2023-04-25T05:07:47;101382.30;;;21.54;47.72
75745;BME280;64359;51.366;-0.222;2023-04-25T05:08:51;101377.93;;;21.54;47.81
75745;BME280;64359;51.366;-0.222;2023-04-25T05:09:56;101381.29;;;21.55;47.79
75745;BME280;64359;51.366;-0.222;2023-04-25T05:11:00;101379.95;;;21.55;47.71
75745;BME280;64359;51.366;-0.222;2023-04-25T05:12:05;101382.80;;;21.56;47.76
75745;BME280;64359;51.366;-0.222;2023-04-25T05:13:10;101391.04;;;21.56;47.74
75745;BME280;64359;51.366;-0.222;2023-04-25T05:14:14;101394.21;;;21.57;47.63
75745;BME280;64359;51.366;-0.222;2023-04-25T05:15:20;101395.36;;;21.58;47.70
75745;BME280;64359;51.366;-0.222;2023-04-25T05:16:24;101400.70;;;21.59;47.63
75745;BME280;64359;51.366;-0.222;2023-04-25T05:17:28;101401.05;;;21.59;47.64
75745;BME280;64359;51.366;-0.222;2023-04-25T05:18:33;101404.20;;;21.60;47.62
75745;BME280;64359;51.366;-0.222;2023-04-25T05:19:38;101405.23;;;21.60;47.60
75745;BME280;64359;51.366;-0.222;2023-04-25T05:20:46;101410.55;;;21.61;47.64
75745;BME280;64359;51.366;-0.222;2023-04-25T05:21:50;101407.60;;;21.61;47.64
75745;BME280;64359;51.366;-0.222;2023-04-25T05:22:54;101408.99;;;21.62;47.69
75745;BME280;64359;51.366;-0.222;2023-04-25T05:23:59;101410.34;;;21.63;47.76
75745;BME280;64359;51.366;-0.222;2023-04-25T05:25:03;101406.14;;;21.63;47.60
75745;BME280;64359;51.366;-0.222;2023-04-25T05:26:08;101405.73;;;21.64;47.62
75745;BME280;64359;51.366;-0.222;2023-04-25T05:27:17;101407.52;;;21.64;47.61
75745;BME280;64359;51.366;-0.222;2023-04-25T05:28:22;101409.73;;;21.63;47.64
75745;BME280;64359;51.366;-0.222;2023-04-25T05:29:26;101412.50;;;21.64;47.63
75745;BME280;64359;51.366;-0.222;2023-04-25T05:30:31;101420.30;;;21.64;47.64
75745;BME280;64359;51.366;-0.222;2023-04-25T05:31:35;101428.36;;;21.65;47.68
75745;BME280;64359;51.366;-0.222;2023-04-25T05:32:40;101433.95;;;21.65;47.58
75745;BME280;64359;51.366;-0.222;2023-04-25T05:33:45;101440.08;;;21.65;47.57